Boomer, West Virginia
Current Conditions -  °F | °C
As of 4:54 PM on Monday 24 Nov 2014 (Local Time) from KCRW Reporting Station
Few Clouds Few Clouds  
Wind Chill: 65°   Ceiling: Unl
Heat Index: 65°   Visibility: 10mi
Dew Point: 43°   Wind: 13mph
Humidity: 45%   Direction: 270°W
Pressure: 29.68"   Gusts: 22mph
Location:  38.15°N, 81.29°W
Report Text: KCRW 242154Z 27011G19KT 10SM FEW075 18/06 A2968 RMK AO2 PK WND 24033/2110 SLP044 T01830061 $
Loading
Personal Weather Stations






























Interactive Weather Map New forecast layout! Learn more

10-Day Weather Forecast

Advertisements
Track Severe Weather on mobile